sensor_id;sensor_type;location;lat;lon;timestamp;pressure;altitude;pressure_sealevel;temperature;humidity
79309;BME280;68767;53.078;7.386;2023-08-20T00:01:26;102303.81;;;14.74;100.00
79309;BME280;68767;53.078;7.386;2023-08-20T00:03:54;102296.81;;;14.73;100.00
79309;BME280;68767;53.078;7.386;2023-08-20T00:06:23;102298.50;;;14.69;100.00
79309;BME280;68767;53.078;7.386;2023-08-20T00:08:51;102292.94;;;14.66;100.00
79309;BME280;68767;53.078;7.386;2023-08-20T00:11:18;102294.03;;;14.65;100.00
79309;BME280;68767;53.078;7.386;2023-08-20T00:13:45;102300.09;;;14.48;100.00
79309;BME280;68767;53.078;7.386;2023-08-20T00:16:12;102296.31;;;14.49;100.00
79309;BME280;68767;53.078;7.386;2023-08-20T00:18:40;102292.69;;;14.53;100.00
79309;BME280;68767;53.078;7.386;2023-08-20T00:21:08;102298.28;;;14.57;100.00
79309;BME280;68767;53.078;7.386;2023-08-20T00:23:35;102291.56;;;14.54;100.00
79309;BME280;68767;53.078;7.386;2023-08-20T00:26:03;102289.88;;;14.45;100.00
79309;BME280;68767;53.078;7.386;2023-08-20T00:28:31;102300.69;;;14.45;100.00
79309;BME280;68767;53.078;7.386;2023-08-20T00:31:02;102295.28;;;14.45;100.00
79309;BME280;68767;53.078;7.386;2023-08-20T00:33:29;102297.41;;;14.48;100.00
79309;BME280;68767;53.078;7.386;2023-08-20T00:35:56;102307.94;;;14.36;100.00
79309;BME280;68767;53.078;7.386;2023-08-20T00:38:23;102307.53;;;14.42;100.00
79309;BME280;68767;53.078;7.386;2023-08-20T00:40:50;102311.94;;;14.38;100.00
79309;BME280;68767;53.078;7.386;2023-08-20T00:43:17;102318.66;;;14.41;100.00
79309;BME280;68767;53.078;7.386;2023-08-20T00:45:44;102319.38;;;14.32;100.00
79309;BME280;68767;53.078;7.386;2023-08-20T00:48:11;102318.88;;;14.30;100.00
79309;BME280;68767;53.078;7.386;2023-08-20T00:50:40;102330.19;;;14.32;100.00
79309;BME280;68767;53.078;7.386;2023-08-20T00:53:10;102332.38;;;14.30;100.00
79309;BME280;68767;53.078;7.386;2023-08-20T00:55:38;102328.09;;;14.29;100.00
79309;BME280;68767;53.078;7.386;2023-08-20T00:58:05;102319.66;;;14.31;100.00
79309;BME280;68767;53.078;7.386;2023-08-20T01:00:33;102321.28;;;14.32;100.00
79309;BME280;68767;53.078;7.386;2023-08-20T01:03:00;102332.09;;;14.32;100.00
79309;BME280;68767;53.078;7.386;2023-08-20T01:05:31;102330.78;;;14.29;100.00
79309;BME280;68767;53.078;7.386;2023-08-20T01:10:47;102331.03;;;14.19;100.00
79309;BME280;68767;53.078;7.386;2023-08-20T01:13:18;102332.63;;;14.20;100.00
79309;BME280;68767;53.078;7.386;2023-08-20T01:15:46;102327.13;;;14.12;100.00
79309;BME280;68767;53.078;7.386;2023-08-20T01:18:13;102329.34;;;14.10;100.00
79309;BME280;68767;53.078;7.386;2023-08-20T01:20:55;102327.06;;;14.03;100.00
79309;BME280;68767;53.078;7.386;2023-08-20T01:28:39;102331.91;;;13.92;100.00
79309;BME280;68767;53.078;7.386;2023-08-20T01:31:10;102325.06;;;14.09;100.00
79309;BME280;68767;53.078;7.386;2023-08-20T01:33:39;102335.97;;;14.03;100.00
79309;BME280;68767;53.078;7.386;2023-08-20T01:36:08;102338.88;;;14.07;100.00
79309;BME280;68767;53.078;7.386;2023-08-20T01:38:39;102332.47;;;14.03;100.00
79309;BME280;68767;53.078;7.386;2023-08-20T01:41:06;102331.06;;;14.05;100.00
79309;BME280;68767;53.078;7.386;2023-08-20T01:43:33;102338.50;;;14.22;100.00
79309;BME280;68767;53.078;7.386;2023-08-20T01:46:00;102337.78;;;14.08;100.00
79309;BME280;68767;53.078;7.386;2023-08-20T01:48:27;102354.38;;;14.01;100.00
79309;BME280;68767;53.078;7.386;2023-08-20T01:50:55;102355.59;;;13.95;100.00
79309;BME280;68767;53.078;7.386;2023-08-20T01:53:22;102350.59;;;13.89;100.00
79309;BME280;68767;53.078;7.386;2023-08-20T01:55:49;102355.91;;;13.94;100.00
79309;BME280;68767;53.078;7.386;2023-08-20T01:58:16;102348.50;;;13.99;100.00
79309;BME280;68767;53.078;7.386;2023-08-20T02:00:45;102358.69;;;14.02;100.00
79309;BME280;68767;53.078;7.386;2023-08-20T02:03:12;102363.22;;;13.93;100.00
79309;BME280;68767;53.078;7.386;2023-08-20T02:05:39;102360.59;;;13.88;100.00
79309;BME280;68767;53.078;7.386;2023-08-20T02:08:08;102357.91;;;13.88;100.00
79309;BME280;68767;53.078;7.386;2023-08-20T02:10:36;102364.22;;;13.84;100.00
79309;BME280;68767;53.078;7.386;2023-08-20T02:13:04;102355.22;;;13.74;100.00
79309;BME280;68767;53.078;7.386;2023-08-20T02:15:31;102361.44;;;13.75;100.00
79309;BME280;68767;53.078;7.386;2023-08-20T02:17:59;102368.31;;;13.81;100.00
79309;BME280;68767;53.078;7.386;2023-08-20T02:20:28;102377.81;;;13.78;100.00
79309;BME280;68767;53.078;7.386;2023-08-20T02:22:55;102373.63;;;13.86;100.00
79309;BME280;68767;53.078;7.386;2023-08-20T02:25:23;102385.75;;;13.75;100.00
79309;BME280;68767;53.078;7.386;2023-08-20T02:27:53;102375.03;;;13.70;100.00
79309;BME280;68767;53.078;7.386;2023-08-20T02:30:20;102377.34;;;13.90;100.00
79309;BME280;68767;53.078;7.386;2023-08-20T02:32:47;102375.72;;;13.89;100.00
79309;BME280;68767;53.078;7.386;2023-08-20T02:35:14;102382.25;;;13.74;100.00
79309;BME280;68767;53.078;7.386;2023-08-20T02:37:43;102372.91;;;13.81;100.00
79309;BME280;68767;53.078;7.386;2023-08-20T02:40:10;102365.41;;;13.91;100.00
79309;BME280;68767;53.078;7.386;2023-08-20T02:42:38;102373.53;;;13.91;100.00
79309;BME280;68767;53.078;7.386;2023-08-20T02:45:05;102378.03;;;13.82;100.00
79309;BME280;68767;53.078;7.386;2023-08-20T02:47:32;102378.84;;;13.83;100.00
79309;BME280;68767;53.078;7.386;2023-08-20T02:50:01;102376.31;;;13.72;100.00
79309;BME280;68767;53.078;7.386;2023-08-20T02:52:31;102378.53;;;13.70;100.00
79309;BME280;68767;53.078;7.386;2023-08-20T02:54:58;102383.44;;;13.68;100.00
79309;BME280;68767;53.078;7.386;2023-08-20T02:57:25;102390.25;;;13.66;100.00
79309;BME280;68767;53.078;7.386;2023-08-20T02:59:52;102387.13;;;13.59;100.00
79309;BME280;68767;53.078;7.386;2023-08-20T03:02:19;102390.50;;;13.64;100.00
79309;BME280;68767;53.078;7.386;2023-08-20T03:04:46;102386.53;;;13.75;100.00
79309;BME280;68767;53.078;7.386;2023-08-20T03:07:14;102393.94;;;13.70;100.00
79309;BME280;68767;53.078;7.386;2023-08-20T03:09:41;102393.13;;;13.69;100.00
79309;BME280;68767;53.078;7.386;2023-08-20T03:12:08;102395.94;;;13.78;100.00
79309;BME280;68767;53.078;7.386;2023-08-20T03:14:35;102391.13;;;13.75;100.00
79309;BME280;68767;53.078;7.386;2023-08-20T03:17:02;102385.63;;;13.80;100.00
79309;BME280;68767;53.078;7.386;2023-08-20T03:19:33;102381.81;;;13.81;100.00
79309;BME280;68767;53.078;7.386;2023-08-20T03:22:02;102371.81;;;13.82;100.00
79309;BME280;68767;53.078;7.386;2023-08-20T03:24:32;102362.50;;;13.88;100.00
79309;BME280;68767;53.078;7.386;2023-08-20T03:26:59;102346.00;;;13.89;100.00
79309;BME280;68767;53.078;7.386;2023-08-20T03:29:26;102333.09;;;13.86;100.00
79309;BME280;68767;53.078;7.386;2023-08-20T03:31:52;102335.38;;;13.93;100.00
79309;BME280;68767;53.078;7.386;2023-08-20T03:34:20;102330.56;;;13.90;100.00
79309;BME280;68767;53.078;7.386;2023-08-20T03:36:47;102337.69;;;13.86;100.00
79309;BME280;68767;53.078;7.386;2023-08-20T03:39:14;102319.41;;;13.83;100.00
79309;BME280;68767;53.078;7.386;2023-08-20T03:41:41;102327.78;;;13.95;100.00
79309;BME280;68767;53.078;7.386;2023-08-20T03:44:08;102336.28;;;13.88;100.00
79309;BME280;68767;53.078;7.386;2023-08-20T03:46:35;102333.78;;;13.92;100.00
79309;BME280;68767;53.078;7.386;2023-08-20T03:49:03;102332.69;;;13.79;100.00
79309;BME280;68767;53.078;7.386;2023-08-20T03:51:30;102338.81;;;13.85;100.00
79309;BME280;68767;53.078;7.386;2023-08-20T03:53:57;102336.41;;;13.83;100.00
79309;BME280;68767;53.078;7.386;2023-08-20T03:56:24;102335.31;;;13.70;100.00
79309;BME280;68767;53.078;7.386;2023-08-20T03:58:51;102334.09;;;13.63;100.00
79309;BME280;68767;53.078;7.386;2023-08-20T04:01:19;102335.69;;;13.77;100.00
79309;BME280;68767;53.078;7.386;2023-08-20T04:03:47;102347.13;;;13.74;100.00
79309;BME280;68767;53.078;7.386;2023-08-20T04:06:15;102350.53;;;13.66;100.00
79309;BME280;68767;53.078;7.386;2023-08-20T04:08:42;102351.91;;;13.64;100.00
79309;BME280;68767;53.078;7.386;2023-08-20T04:11:10;102348.53;;;13.58;100.00
79309;BME280;68767;53.078;7.386;2023-08-20T04:13:39;102347.81;;;13.66;100.00
79309;BME280;68767;53.078;7.386;2023-08-20T04:16:06;102351.03;;;13.68;100.00
79309;BME280;68767;53.078;7.386;2023-08-20T04:18:34;102351.41;;;13.62;100.00
79309;BME280;68767;53.078;7.386;2023-08-20T04:21:01;102365.53;;;13.59;100.00
79309;BME280;68767;53.078;7.386;2023-08-20T04:23:28;102366.31;;;13.59;100.00
79309;BME280;68767;53.078;7.386;2023-08-20T04:25:55;102369.41;;;13.53;100.00
79309;BME280;68767;53.078;7.386;2023-08-20T04:28:22;102371.69;;;13.45;100.00
79309;BME280;68767;53.078;7.386;2023-08-20T04:30:52;102378.91;;;13.50;100.00
79309;BME280;68767;53.078;7.386;2023-08-20T04:33:22;102377.13;;;13.59;100.00
79309;BME280;68767;53.078;7.386;2023-08-20T04:35:49;102376.31;;;13.59;100.00
79309;BME280;68767;53.078;7.386;2023-08-20T04:38:19;102370.22;;;13.67;100.00
79309;BME280;68767;53.078;7.386;2023-08-20T04:40:48;102371.91;;;13.63;100.00
79309;BME280;68767;53.078;7.386;2023-08-20T04:43:15;102379.13;;;13.67;100.00
79309;BME280;68767;53.078;7.386;2023-08-20T04:45:43;102379.72;;;13.78;100.00
79309;BME280;68767;53.078;7.386;2023-08-20T04:48:10;102384.53;;;13.67;100.00
79309;BME280;68767;53.078;7.386;2023-08-20T04:50:36;102388.41;;;13.61;100.00
79309;BME280;68767;53.078;7.386;2023-08-20T04:53:03;102380.22;;;13.66;100.00
79309;BME280;68767;53.078;7.386;2023-08-20T04:55:30;102378.72;;;13.60;100.00
79309;BME280;68767;53.078;7.386;2023-08-20T04:57:57;102382.72;;;13.63;100.00
79309;BME280;68767;53.078;7.386;2023-08-20T05:00:24;102387.91;;;13.73;100.00
79309;BME280;68767;53.078;7.386;2023-08-20T05:02:57;102398.63;;;13.78;100.00
79309;BME280;68767;53.078;7.386;2023-08-20T05:05:25;102394.41;;;13.72;100.00
79309;BME280;68767;53.078;7.386;2023-08-20T05:07:53;102398.81;;;13.82;100.00
79309;BME280;68767;53.078;7.386;2023-08-20T05:10:20;102398.63;;;13.92;100.00
79309;BME280;68767;53.078;7.386;2023-08-20T05:12:47;102396.03;;;13.87;100.00
79309;BME280;68767;53.078;7.386;2023-08-20T05:15:15;102406.03;;;13.86;100.00
79309;BME280;68767;53.078;7.386;2023-08-20T05:17:42;102398.25;;;13.98;100.00
79309;BME280;68767;53.078;7.386;2023-08-20T05:20:09;102402.53;;;13.86;100.00
79309;BME280;68767;53.078;7.386;2023-08-20T05:22:37;102413.66;;;13.84;100.00
79309;BME280;68767;53.078;7.386;2023-08-20T05:25:04;102408.13;;;13.89;100.00
79309;BME280;68767;53.078;7.386;2023-08-20T05:27:31;102399.13;;;13.94;100.00
79309;BME280;68767;53.078;7.386;2023-08-20T05:30:01;102410.53;;;14.04;100.00
79309;BME280;68767;53.078;7.386;2023-08-20T05:32:30;102417.53;;;14.19;100.00
79309;BME280;68767;53.078;7.386;2023-08-20T05:34:57;102417.81;;;14.31;100.00
79309;BME280;68767;53.078;7.386;2023-08-20T05:37:24;102423.41;;;14.35;100.00
79309;BME280;68767;53.078;7.386;2023-08-20T05:39:51;102423.50;;;14.30;100.00
79309;BME280;68767;53.078;7.386;2023-08-20T05:42:18;102430.50;;;14.31;100.00
79309;BME280;68767;53.078;7.386;2023-08-20T05:44:52;102429.53;;;14.41;100.00
79309;BME280;68767;53.078;7.386;2023-08-20T05:47:25;102432.41;;;14.58;100.00
79309;BME280;68767;53.078;7.386;2023-08-20T05:49:52;102430.28;;;14.69;100.00
79309;BME280;68767;53.078;7.386;2023-08-20T05:52:19;102434.09;;;14.68;100.00
79309;BME280;68767;53.078;7.386;2023-08-20T05:54:46;102438.47;;;14.77;100.00
79309;BME280;68767;53.078;7.386;2023-08-20T05:57:14;102433.81;;;14.92;100.00
79309;BME280;68767;53.078;7.386;2023-08-20T05:59:42;102444.31;;;14.93;100.00
79309;BME280;68767;53.078;7.386;2023-08-20T06:02:09;102440.09;;;15.01;100.00
79309;BME280;68767;53.078;7.386;2023-08-20T06:04:37;102426.72;;;15.04;100.00
79309;BME280;68767;53.078;7.386;2023-08-20T06:07:03;102437.22;;;15.06;100.00
79309;BME280;68767;53.078;7.386;2023-08-20T06:09:31;102438.72;;;15.12;100.00
79309;BME280;68767;53.078;7.386;2023-08-20T06:11:58;102430.66;;;15.21;100.00
79309;BME280;68767;53.078;7.386;2023-08-20T06:14:24;102434.72;;;15.32;100.00
79309;BME280;68767;53.078;7.386;2023-08-20T06:16:51;102437.97;;;15.42;100.00
79309;BME280;68767;53.078;7.386;2023-08-20T06:19:18;102435.41;;;15.46;100.00
79309;BME280;68767;53.078;7.386;2023-08-20T06:21:45;102431.22;;;15.62;100.00
79309;BME280;68767;53.078;7.386;2023-08-20T06:24:12;102439.28;;;15.76;100.00
79309;BME280;68767;53.078;7.386;2023-08-20T06:26:39;102431.94;;;15.77;100.00
79309;BME280;68767;53.078;7.386;2023-08-20T06:29:06;102439.63;;;15.83;100.00
79309;BME280;68767;53.078;7.386;2023-08-20T06:31:33;102441.09;;;15.89;100.00
79309;BME280;68767;53.078;7.386;2023-08-20T06:34:01;102438.09;;;15.99;100.00
79309;BME280;68767;53.078;7.386;2023-08-20T06:36:29;102437.63;;;16.06;100.00
79309;BME280;68767;53.078;7.386;2023-08-20T06:38:56;102434.31;;;16.18;100.00
79309;BME280;68767;53.078;7.386;2023-08-20T06:41:23;102448.53;;;16.23;100.00
79309;BME280;68767;53.078;7.386;2023-08-20T06:43:50;102442.47;;;16.35;100.00
79309;BME280;68767;53.078;7.386;2023-08-20T06:46:17;102451.44;;;16.53;100.00
79309;BME280;68767;53.078;7.386;2023-08-20T06:48:44;102449.56;;;16.71;100.00
79309;BME280;68767;53.078;7.386;2023-08-20T06:51:14;102445.44;;;16.73;100.00
79309;BME280;68767;53.078;7.386;2023-08-20T06:53:42;102449.75;;;16.83;100.00
79309;BME280;68767;53.078;7.386;2023-08-20T06:56:10;102446.53;;;16.90;100.00
79309;BME280;68767;53.078;7.386;2023-08-20T06:58:39;102455.63;;;16.85;100.00
79309;BME280;68767;53.078;7.386;2023-08-20T07:01:07;102459.94;;;16.95;100.00
79309;BME280;68767;53.078;7.386;2023-08-20T07:03:43;102455.28;;;17.12;100.00
79309;BME280;68767;53.078;7.386;2023-08-20T07:06:11;102452.59;;;17.21;100.00
79309;BME280;68767;53.078;7.386;2023-08-20T07:08:41;102465.50;;;17.33;100.00
79309;BME280;68767;53.078;7.386;2023-08-20T07:11:08;102469.78;;;17.42;100.00
79309;BME280;68767;53.078;7.386;2023-08-20T07:13:35;102464.97;;;17.57;100.00
79309;BME280;68767;53.078;7.386;2023-08-20T07:16:03;102471.31;;;17.69;100.00
79309;BME280;68767;53.078;7.386;2023-08-20T07:18:30;102471.81;;;17.72;100.00
79309;BME280;68767;53.078;7.386;2023-08-20T07:20:57;102465.81;;;17.87;100.00
79309;BME280;68767;53.078;7.386;2023-08-20T07:23:24;102471.91;;;17.92;100.00
79309;BME280;68767;53.078;7.386;2023-08-20T07:26:03;102468.50;;;18.04;100.00
79309;BME280;68767;53.078;7.386;2023-08-20T07:28:31;102473.09;;;18.12;100.00
79309;BME280;68767;53.078;7.386;2023-08-20T07:31:16;102474.19;;;18.11;100.00
79309;BME280;68767;53.078;7.386;2023-08-20T07:33:47;102468.66;;;18.29;100.00
79309;BME280;68767;53.078;7.386;2023-08-20T07:36:15;102471.25;;;18.55;100.00
79309;BME280;68767;53.078;7.386;2023-08-20T07:38:43;102465.38;;;18.44;100.00
79309;BME280;68767;53.078;7.386;2023-08-20T07:41:11;102464.94;;;18.63;100.00
79309;BME280;68767;53.078;7.386;2023-08-20T07:43:38;102463.53;;;18.77;100.00
79309;BME280;68767;53.078;7.386;2023-08-20T07:46:07;102463.16;;;18.88;100.00
79309;BME280;68767;53.078;7.386;2023-08-20T07:48:35;102458.28;;;18.93;100.00
79309;BME280;68767;53.078;7.386;2023-08-20T07:51:02;102455.38;;;18.98;100.00
79309;BME280;68767;53.078;7.386;2023-08-20T07:53:30;102446.31;;;19.06;100.00
79309;BME280;68767;53.078;7.386;2023-08-20T07:55:57;102441.06;;;19.34;100.00
79309;BME280;68767;53.078;7.386;2023-08-20T07:58:24;102431.44;;;19.37;100.00
79309;BME280;68767;53.078;7.386;2023-08-20T08:00:55;102428.22;;;19.35;100.00
79309;BME280;68767;53.078;7.386;2023-08-20T08:03:22;102425.47;;;19.68;100.00
79309;BME280;68767;53.078;7.386;2023-08-20T08:05:52;102425.81;;;19.67;100.00
79309;BME280;68767;53.078;7.386;2023-08-20T08:08:20;102417.41;;;19.72;100.00
79309;BME280;68767;53.078;7.386;2023-08-20T08:10:48;102422.84;;;19.84;100.00
79309;BME280;68767;53.078;7.386;2023-08-20T08:13:18;102429.09;;;20.09;100.00
79309;BME280;68767;53.078;7.386;2023-08-20T08:15:46;102428.53;;;20.15;100.00
79309;BME280;68767;53.078;7.386;2023-08-20T08:18:13;102421.22;;;20.32;100.00
79309;BME280;68767;53.078;7.386;2023-08-20T08:20:41;102419.06;;;20.37;100.00
79309;BME280;68767;53.078;7.386;2023-08-20T08:23:08;102414.31;;;19.98;100.00
79309;BME280;68767;53.078;7.386;2023-08-20T08:25:35;102421.44;;;20.27;100.00
79309;BME280;68767;53.078;7.386;2023-08-20T08:28:02;102424.16;;;20.51;100.00
79309;BME280;68767;53.078;7.386;2023-08-20T08:30:30;102422.13;;;20.48;100.00
79309;BME280;68767;53.078;7.386;2023-08-20T08:32:58;102419.34;;;20.60;100.00
79309;BME280;68767;53.078;7.386;2023-08-20T08:35:24;102428.53;;;20.68;100.00
79309;BME280;68767;53.078;7.386;2023-08-20T08:37:52;102417.59;;;20.68;100.00
79309;BME280;68767;53.078;7.386;2023-08-20T08:40:19;102424.94;;;21.08;100.00
79309;BME280;68767;53.078;7.386;2023-08-20T08:42:49;102425.09;;;20.99;100.00
79309;BME280;68767;53.078;7.386;2023-08-20T08:45:20;102424.22;;;20.95;100.00
79309;BME280;68767;53.078;7.386;2023-08-20T08:47:49;102429.81;;;21.14;100.00
79309;BME280;68767;53.078;7.386;2023-08-20T08:50:16;102424.94;;;21.36;100.00
79309;BME280;68767;53.078;7.386;2023-08-20T08:52:44;102431.72;;;21.42;100.00
79309;BME280;68767;53.078;7.386;2023-08-20T08:55:11;102413.38;;;21.42;100.00
79309;BME280;68767;53.078;7.386;2023-08-20T08:57:39;102420.69;;;21.38;100.00
79309;BME280;68767;53.078;7.386;2023-08-20T09:00:06;102418.75;;;21.39;100.00
79309;BME280;68767;53.078;7.386;2023-08-20T09:02:34;102421.75;;;21.49;100.00
79309;BME280;68767;53.078;7.386;2023-08-20T09:05:01;102421.69;;;21.46;100.00
79309;BME280;68767;53.078;7.386;2023-08-20T09:07:28;102424.31;;;21.74;100.00
79309;BME280;68767;53.078;7.386;2023-08-20T09:09:58;102424.78;;;21.60;100.00
79309;BME280;68767;53.078;7.386;2023-08-20T09:12:33;102428.28;;;21.76;100.00
79309;BME280;68767;53.078;7.386;2023-08-20T09:15:01;102422.34;;;21.90;100.00
79309;BME280;68767;53.078;7.386;2023-08-20T09:17:28;102421.34;;;21.98;100.00
79309;BME280;68767;53.078;7.386;2023-08-20T09:19:56;102420.56;;;22.13;100.00
79309;BME280;68767;53.078;7.386;2023-08-20T09:22:26;102421.16;;;22.23;100.00
79309;BME280;68767;53.078;7.386;2023-08-20T09:24:55;102426.84;;;22.33;100.00
79309;BME280;68767;53.078;7.386;2023-08-20T09:27:23;102429.75;;;22.40;100.00
79309;BME280;68767;53.078;7.386;2023-08-20T09:29:51;102422.91;;;22.50;100.00
79309;BME280;68767;53.078;7.386;2023-08-20T09:32:24;102434.00;;;22.57;100.00
79309;BME280;68767;53.078;7.386;2023-08-20T09:34:52;102428.31;;;22.47;100.00
79309;BME280;68767;53.078;7.386;2023-08-20T09:37:21;102423.22;;;22.64;100.00
79309;BME280;68767;53.078;7.386;2023-08-20T09:39:49;102429.34;;;22.77;100.00
79309;BME280;68767;53.078;7.386;2023-08-20T09:42:16;102426.59;;;22.77;100.00
79309;BME280;68767;53.078;7.386;2023-08-20T09:44:45;102415.31;;;22.82;100.00
79309;BME280;68767;53.078;7.386;2023-08-20T09:47:16;102420.88;;;23.05;100.00
79309;BME280;68767;53.078;7.386;2023-08-20T09:49:47;102422.13;;;22.88;100.00
79309;BME280;68767;53.078;7.386;2023-08-20T09:52:25;102425.16;;;23.03;100.00
79309;BME280;68767;53.078;7.386;2023-08-20T09:55:08;102430.00;;;23.09;100.00
79309;BME280;68767;53.078;7.386;2023-08-20T09:57:40;102423.84;;;23.39;100.00
79309;BME280;68767;53.078;7.386;2023-08-20T10:00:12;102423.34;;;23.33;100.00
79309;BME280;68767;53.078;7.386;2023-08-20T10:02:52;102418.97;;;23.51;100.00
79309;BME280;68767;53.078;7.386;2023-08-20T10:05:20;102412.50;;;23.63;100.00
79309;BME280;68767;53.078;7.386;2023-08-20T10:07:49;102415.06;;;23.52;100.00
79309;BME280;68767;53.078;7.386;2023-08-20T10:10:17;102417.47;;;23.80;100.00
79309;BME280;68767;53.078;7.386;2023-08-20T10:12:45;102413.63;;;23.85;100.00
79309;BME280;68767;53.078;7.386;2023-08-20T10:15:13;102411.78;;;23.93;100.00
79309;BME280;68767;53.078;7.386;2023-08-20T10:17:41;102408.78;;;24.01;100.00
79309;BME280;68767;53.078;7.386;2023-08-20T10:20:09;102409.88;;;23.97;100.00
79309;BME280;68767;53.078;7.386;2023-08-20T10:22:41;102415.34;;;24.23;100.00
79309;BME280;68767;53.078;7.386;2023-08-20T10:25:39;102418.84;;;24.20;100.00
79309;BME280;68767;53.078;7.386;2023-08-20T10:28:26;102414.72;;;24.07;100.00
79309;BME280;68767;53.078;7.386;2023-08-20T10:33:38;102412.19;;;24.21;100.00
79309;BME280;68767;53.078;7.386;2023-08-20T10:36:24;102404.34;;;24.50;100.00
79309;BME280;68767;53.078;7.386;2023-08-20T10:38:55;102408.47;;;24.36;100.00
79309;BME280;68767;53.078;7.386;2023-08-20T10:41:27;102409.75;;;24.43;100.00
79309;BME280;68767;53.078;7.386;2023-08-20T10:43:59;102411.66;;;24.38;100.00
79309;BME280;68767;53.078;7.386;2023-08-20T10:46:29;102415.03;;;24.28;100.00
79309;BME280;68767;53.078;7.386;2023-08-20T10:49:01;102412.34;;;24.65;100.00
79309;BME280;68767;53.078;7.386;2023-08-20T10:51:34;102407.41;;;24.45;100.00
79309;BME280;68767;53.078;7.386;2023-08-20T10:54:09;102406.81;;;24.62;100.00
79309;BME280;68767;53.078;7.386;2023-08-20T10:59:26;102419.59;;;24.81;100.00
79309;BME280;68767;53.078;7.386;2023-08-20T11:01:58;102418.63;;;25.00;100.00
79309;BME280;68767;53.078;7.386;2023-08-20T11:04:30;102417.66;;;25.18;100.00
79309;BME280;68767;53.078;7.386;2023-08-20T11:07:01;102406.91;;;25.03;100.00
79309;BME280;68767;53.078;7.386;2023-08-20T11:09:30;102413.34;;;25.21;100.00
79309;BME280;68767;53.078;7.386;2023-08-20T11:11:57;102406.00;;;25.32;100.00
79309;BME280;68767;53.078;7.386;2023-08-20T11:14:24;102408.38;;;25.37;100.00
79309;BME280;68767;53.078;7.386;2023-08-20T11:16:55;102407.38;;;24.75;100.00
79309;BME280;68767;53.078;7.386;2023-08-20T11:19:23;102408.81;;;24.65;100.00
79309;BME280;68767;53.078;7.386;2023-08-20T11:21:51;102403.88;;;24.78;100.00
79309;BME280;68767;53.078;7.386;2023-08-20T11:24:18;102408.38;;;24.97;100.00
79309;BME280;68767;53.078;7.386;2023-08-20T11:26:48;102409.28;;;25.04;100.00
79309;BME280;68767;53.078;7.386;2023-08-20T11:29:16;102400.84;;;25.31;100.00
79309;BME280;68767;53.078;7.386;2023-08-20T11:31:49;102408.91;;;25.50;100.00
79309;BME280;68767;53.078;7.386;2023-08-20T11:34:18;102412.00;;;25.45;100.00
79309;BME280;68767;53.078;7.386;2023-08-20T11:36:46;102411.94;;;25.38;100.00
79309;BME280;68767;53.078;7.386;2023-08-20T11:39:13;102403.25;;;25.32;100.00
79309;BME280;68767;53.078;7.386;2023-08-20T11:41:40;102400.31;;;25.62;100.00
79309;BME280;68767;53.078;7.386;2023-08-20T11:44:10;102402.47;;;25.83;100.00
79309;BME280;68767;53.078;7.386;2023-08-20T11:46:44;102403.34;;;25.98;100.00
79309;BME280;68767;53.078;7.386;2023-08-20T11:49:12;102399.38;;;25.95;100.00
79309;BME280;68767;53.078;7.386;2023-08-20T11:51:48;102400.19;;;25.96;100.00
79309;BME280;68767;53.078;7.386;2023-08-20T11:54:17;102402.53;;;25.90;100.00
79309;BME280;68767;53.078;7.386;2023-08-20T11:56:46;102402.34;;;25.69;100.00
79309;BME280;68767;53.078;7.386;2023-08-20T11:59:14;102393.09;;;25.91;100.00
79309;BME280;68767;53.078;7.386;2023-08-20T12:01:42;102407.53;;;25.74;100.00
79309;BME280;68767;53.078;7.386;2023-08-20T12:04:10;102393.47;;;25.93;100.00
79309;BME280;68767;53.078;7.386;2023-08-20T12:06:37;102401.00;;;26.00;100.00
79309;BME280;68767;53.078;7.386;2023-08-20T12:09:21;102395.19;;;26.16;100.00
79309;BME280;68767;53.078;7.386;2023-08-20T12:11:52;102392.75;;;26.03;100.00
79309;BME280;68767;53.078;7.386;2023-08-20T12:14:22;102386.59;;;26.35;100.00
79309;BME280;68767;53.078;7.386;2023-08-20T12:16:49;102387.09;;;26.55;100.00
79309;BME280;68767;53.078;7.386;2023-08-20T12:19:19;102395.06;;;26.92;100.00
79309;BME280;68767;53.078;7.386;2023-08-20T12:21:46;102387.97;;;26.95;100.00
79309;BME280;68767;53.078;7.386;2023-08-20T12:24:13;102392.75;;;27.48;100.00
79309;BME280;68767;53.078;7.386;2023-08-20T12:26:42;102390.34;;;27.78;100.00
79309;BME280;68767;53.078;7.386;2023-08-20T12:29:09;102384.78;;;27.96;100.00
79309;BME280;68767;53.078;7.386;2023-08-20T12:31:36;102376.56;;;27.46;100.00
79309;BME280;68767;53.078;7.386;2023-08-20T12:34:03;102368.69;;;27.48;100.00
79309;BME280;68767;53.078;7.386;2023-08-20T12:36:30;102382.50;;;27.73;100.00
79309;BME280;68767;53.078;7.386;2023-08-20T12:38:57;102370.63;;;27.76;100.00
79309;BME280;68767;53.078;7.386;2023-08-20T12:41:24;102366.94;;;28.18;100.00
79309;BME280;68767;53.078;7.386;2023-08-20T12:43:51;102370.47;;;28.33;95.85
79309;BME280;68767;53.078;7.386;2023-08-20T12:46:18;102369.03;;;28.77;92.59
79309;BME280;68767;53.078;7.386;2023-08-20T12:48:47;102365.69;;;28.37;86.85
79309;BME280;68767;53.078;7.386;2023-08-20T12:51:14;102374.41;;;29.05;92.33
79309;BME280;68767;53.078;7.386;2023-08-20T12:53:44;102366.84;;;29.09;86.01
79309;BME280;68767;53.078;7.386;2023-08-20T12:56:11;102374.47;;;28.95;87.82
79309;BME280;68767;53.078;7.386;2023-08-20T12:58:40;102362.13;;;29.89;86.17
79309;BME280;68767;53.078;7.386;2023-08-20T13:01:15;102368.19;;;30.14;81.15